Portada
METAR-TAF:

METAR-TAF

Aeropuertos :

Aeropuerto Internacional de Fairbanks

Fairbanks, Alaska, Estados Unidos

latitud: 64-48-14N, longitud: 147-52-34W, altitud: 132 m

Observación

El informe se hizo hace 30 minutos, a las 03:53 UTC
Viento 3 kt del sur
Temperatura 24°C
Humedad 34%
Presión 1023 hPa
Visibilidad: 16.1 km
Cielo nuboso a una altura de 20000 ft

METAR: PAFA 250353Z 18003KT 10SM BKN200 24/07 A3020 RMK AO2 SLP229 T02390072

Hora: 20:23 (04:23 UTC)

Pronóstico

El informe se hizo hace 4 horas y 46 minutos, a las 23:37 UTC
Pronóstico válido del 25 a las 00 UTC al 26 a las 06 UTC
Viento 4 kt con dirección variable
Visibilidad: 10 km
Nubes dispersas a una altura de 13000 ft
Nubes dispersas a una altura de 20000 ft

TAF: PAFA 242337Z 2500/2606 VRB04KT P6SM SCT130 SCT200

Observaciones y pronósticos meteorológicos de más de 4000 aeropuertos (mensajes METAR y TAF).

Los puntos amarillos y rojos representan las estaciones disponibles.

Ponga el ratón en el punto deseado para ver el nombre de la estación.

Haga clic para ver las observaciones y los pronósticos meteorológicos.

Para cambiar el mapa : haga clic en los botones verdes con una cruz de color negro para hacer un zoom, en el botón verde con un guión para alejar o en las flechas verdes para mapas adyacentes.


METAR-TAF: